sensor_id;sensor_type;location;lat;lon;timestamp;temperature;humidity
21950;DHT22;11139;51.284;7.226;2024-03-23T00:55:13;11.50;99.90
21950;DHT22;11139;51.284;7.226;2024-03-23T00:57:39;11.50;99.90
21950;DHT22;11139;51.284;7.226;2024-03-23T01:00:05;11.40;99.90
21950;DHT22;11139;51.284;7.226;2024-03-23T01:02:32;11.40;99.90
21950;DHT22;11139;51.284;7.226;2024-03-23T01:04:58;11.40;99.90
21950;DHT22;11139;51.284;7.226;2024-03-23T01:07:23;11.40;99.90
21950;DHT22;11139;51.284;7.226;2024-03-23T01:09:49;11.40;99.90
21950;DHT22;11139;51.284;7.226;2024-03-23T01:12:14;11.40;99.90
21950;DHT22;11139;51.284;7.226;2024-03-23T01:14:40;11.40;99.90
21950;DHT22;11139;51.284;7.226;2024-03-23T01:17:06;11.40;99.90
21950;DHT22;11139;51.284;7.226;2024-03-23T01:19:31;11.30;99.90
21950;DHT22;11139;51.284;7.226;2024-03-23T01:21:57;11.30;99.90
21950;DHT22;11139;51.284;7.226;2024-03-23T01:24:23;11.30;99.90
21950;DHT22;11139;51.284;7.226;2024-03-23T01:26:48;11.30;99.90
21950;DHT22;11139;51.284;7.226;2024-03-23T01:29:14;11.30;99.90
21950;DHT22;11139;51.284;7.226;2024-03-23T01:31:39;11.30;99.90
21950;DHT22;11139;51.284;7.226;2024-03-23T01:34:05;11.30;99.90
21950;DHT22;11139;51.284;7.226;2024-03-23T01:36:31;11.20;99.90
21950;DHT22;11139;51.284;7.226;2024-03-23T01:38:56;11.20;99.90
21950;DHT22;11139;51.284;7.226;2024-03-23T01:41:24;11.20;99.90
21950;DHT22;11139;51.284;7.226;2024-03-23T01:43:50;11.20;99.90
21950;DHT22;11139;51.284;7.226;2024-03-23T01:46:16;11.20;99.90
21950;DHT22;11139;51.284;7.226;2024-03-23T01:48:42;11.20;99.90
21950;DHT22;11139;51.284;7.226;2024-03-23T01:51:08;11.20;99.90
21950;DHT22;11139;51.284;7.226;2024-03-23T01:53:33;11.20;99.90
21950;DHT22;11139;51.284;7.226;2024-03-23T01:55:59;11.10;99.90
21950;DHT22;11139;51.284;7.226;2024-03-23T01:58:25;11.10;99.90
21950;DHT22;11139;51.284;7.226;2024-03-23T02:00:50;11.10;99.90
21950;DHT22;11139;51.284;7.226;2024-03-23T02:03:26;11.10;99.90
21950;DHT22;11139;51.284;7.226;2024-03-23T02:05:53;11.10;99.90
21950;DHT22;11139;51.284;7.226;2024-03-23T02:08:20;11.00;99.90
21950;DHT22;11139;51.284;7.226;2024-03-23T02:10:47;11.00;99.90
21950;DHT22;11139;51.284;7.226;2024-03-23T02:13:14;11.00;99.90
21950;DHT22;11139;51.284;7.226;2024-03-23T02:15:40;11.00;99.90
21950;DHT22;11139;51.284;7.226;2024-03-23T02:18:07;11.00;99.90
21950;DHT22;11139;51.284;7.226;2024-03-23T02:20:34;11.00;99.90
21950;DHT22;11139;51.284;7.226;2024-03-23T02:23:00;11.00;99.90
21950;DHT22;11139;51.284;7.226;2024-03-23T02:25:25;10.90;99.90
21950;DHT22;11139;51.284;7.226;2024-03-23T02:27:51;11.00;99.90
21950;DHT22;11139;51.284;7.226;2024-03-23T02:30:18;10.90;99.90
21950;DHT22;11139;51.284;7.226;2024-03-23T02:32:44;10.90;99.90
21950;DHT22;11139;51.284;7.226;2024-03-23T02:35:09;10.90;99.90
21950;DHT22;11139;51.284;7.226;2024-03-23T02:37:35;10.90;99.90
21950;DHT22;11139;51.284;7.226;2024-03-23T02:40:00;10.90;99.90
21950;DHT22;11139;51.284;7.226;2024-03-23T02:42:26;10.90;99.90
21950;DHT22;11139;51.284;7.226;2024-03-23T02:44:52;10.90;99.90
21950;DHT22;11139;51.284;7.226;2024-03-23T02:47:17;10.80;99.90
21950;DHT22;11139;51.284;7.226;2024-03-23T02:49:43;10.90;99.90
21950;DHT22;11139;51.284;7.226;2024-03-23T02:52:08;10.80;99.90
21950;DHT22;11139;51.284;7.226;2024-03-23T02:54:34;10.80;99.90
21950;DHT22;11139;51.284;7.226;2024-03-23T02:56:59;10.80;99.90
21950;DHT22;11139;51.284;7.226;2024-03-23T02:59:25;10.80;99.90
21950;DHT22;11139;51.284;7.226;2024-03-23T03:01:50;10.80;99.90
21950;DHT22;11139;51.284;7.226;2024-03-23T03:04:16;10.80;99.90
21950;DHT22;11139;51.284;7.226;2024-03-23T03:06:42;10.80;99.90
21950;DHT22;11139;51.284;7.226;2024-03-23T03:09:07;10.80;99.90
21950;DHT22;11139;51.284;7.226;2024-03-23T03:11:33;10.70;99.90
21950;DHT22;11139;51.284;7.226;2024-03-23T03:13:59;10.70;99.90
21950;DHT22;11139;51.284;7.226;2024-03-23T03:16:26;10.70;99.90
21950;DHT22;11139;51.284;7.226;2024-03-23T03:18:52;10.70;99.90
21950;DHT22;11139;51.284;7.226;2024-03-23T03:21:18;10.70;99.90
21950;DHT22;11139;51.284;7.226;2024-03-23T03:23:44;10.70;99.90
21950;DHT22;11139;51.284;7.226;2024-03-23T03:26:10;10.70;99.90
21950;DHT22;11139;51.284;7.226;2024-03-23T03:28:36;10.70;99.90
21950;DHT22;11139;51.284;7.226;2024-03-23T03:31:02;10.60;99.90
21950;DHT22;11139;51.284;7.226;2024-03-23T03:33:28;10.60;99.90
21950;DHT22;11139;51.284;7.226;2024-03-23T03:35:54;10.60;99.90
21950;DHT22;11139;51.284;7.226;2024-03-23T03:38:20;10.60;99.90
21950;DHT22;11139;51.284;7.226;2024-03-23T03:40:45;10.60;99.90
21950;DHT22;11139;51.284;7.226;2024-03-23T03:43:11;10.60;99.90
21950;DHT22;11139;51.284;7.226;2024-03-23T03:45:37;10.60;99.90
21950;DHT22;11139;51.284;7.226;2024-03-23T03:48:02;10.60;99.90
21950;DHT22;11139;51.284;7.226;2024-03-23T03:50:28;10.60;99.90
21950;DHT22;11139;51.284;7.226;2024-03-23T03:52:54;10.60;99.90
21950;DHT22;11139;51.284;7.226;2024-03-23T03:55:19;10.60;99.90
21950;DHT22;11139;51.284;7.226;2024-03-23T03:57:45;10.50;99.90
21950;DHT22;11139;51.284;7.226;2024-03-23T04:00:11;10.50;99.90
21950;DHT22;11139;51.284;7.226;2024-03-23T04:02:37;10.50;99.90
21950;DHT22;11139;51.284;7.226;2024-03-23T04:05:03;10.50;99.90
21950;DHT22;11139;51.284;7.226;2024-03-23T04:07:29;10.50;99.90
21950;DHT22;11139;51.284;7.226;2024-03-23T04:09:55;10.50;99.90
21950;DHT22;11139;51.284;7.226;2024-03-23T04:12:20;10.40;99.90
21950;DHT22;11139;51.284;7.226;2024-03-23T04:14:46;10.40;99.90
21950;DHT22;11139;51.284;7.226;2024-03-23T04:17:11;10.40;99.90
21950;DHT22;11139;51.284;7.226;2024-03-23T04:19:37;10.40;99.90
21950;DHT22;11139;51.284;7.226;2024-03-23T04:22:03;10.40;99.90
21950;DHT22;11139;51.284;7.226;2024-03-23T04:24:29;10.40;99.90
21950;DHT22;11139;51.284;7.226;2024-03-23T04:26:55;10.40;99.90
21950;DHT22;11139;51.284;7.226;2024-03-23T04:29:20;10.40;99.90
21950;DHT22;11139;51.284;7.226;2024-03-23T04:31:46;10.40;99.90
21950;DHT22;11139;51.284;7.226;2024-03-23T04:34:12;10.40;99.90
21950;DHT22;11139;51.284;7.226;2024-03-23T04:36:38;10.40;99.90
21950;DHT22;11139;51.284;7.226;2024-03-23T04:39:04;10.40;99.90
21950;DHT22;11139;51.284;7.226;2024-03-23T04:41:29;10.30;99.90
21950;DHT22;11139;51.284;7.226;2024-03-23T04:43:55;10.30;99.90
21950;DHT22;11139;51.284;7.226;2024-03-23T04:46:21;10.30;99.90
21950;DHT22;11139;51.284;7.226;2024-03-23T04:48:46;10.30;99.90
21950;DHT22;11139;51.284;7.226;2024-03-23T04:51:20;10.30;99.90
21950;DHT22;11139;51.284;7.226;2024-03-23T04:53:47;10.30;99.90
21950;DHT22;11139;51.284;7.226;2024-03-23T04:56:13;10.30;99.90
21950;DHT22;11139;51.284;7.226;2024-03-23T04:58:39;10.20;99.90
21950;DHT22;11139;51.284;7.226;2024-03-23T05:01:05;10.30;99.90
21950;DHT22;11139;51.284;7.226;2024-03-23T05:03:31;10.30;99.90
21950;DHT22;11139;51.284;7.226;2024-03-23T05:05:56;10.20;99.90
21950;DHT22;11139;51.284;7.226;2024-03-23T05:08:22;10.20;99.90
21950;DHT22;11139;51.284;7.226;2024-03-23T05:10:48;10.20;99.90
21950;DHT22;11139;51.284;7.226;2024-03-23T05:13:13;10.20;99.90
21950;DHT22;11139;51.284;7.226;2024-03-23T05:15:39;10.30;99.90
21950;DHT22;11139;51.284;7.226;2024-03-23T05:18:05;10.30;99.90
21950;DHT22;11139;51.284;7.226;2024-03-23T05:20:31;10.20;99.90
21950;DHT22;11139;51.284;7.226;2024-03-23T05:22:57;10.20;99.90
21950;DHT22;11139;51.284;7.226;2024-03-23T05:25:23;10.20;99.90
21950;DHT22;11139;51.284;7.226;2024-03-23T05:27:48;10.20;99.90
21950;DHT22;11139;51.284;7.226;2024-03-23T05:30:14;10.20;99.90
21950;DHT22;11139;51.284;7.226;2024-03-23T05:32:40;10.10;99.90
21950;DHT22;11139;51.284;7.226;2024-03-23T05:35:08;10.10;99.90
21950;DHT22;11139;51.284;7.226;2024-03-23T05:37:34;10.10;99.90
21950;DHT22;11139;51.284;7.226;2024-03-23T05:40:00;10.10;99.90
21950;DHT22;11139;51.284;7.226;2024-03-23T05:42:26;10.10;99.90
21950;DHT22;11139;51.284;7.226;2024-03-23T05:44:52;10.10;99.90
21950;DHT22;11139;51.284;7.226;2024-03-23T05:47:18;10.10;99.90
21950;DHT22;11139;51.284;7.226;2024-03-23T05:49:45;10.10;99.90
21950;DHT22;11139;51.284;7.226;2024-03-23T05:52:11;10.00;99.90
21950;DHT22;11139;51.284;7.226;2024-03-23T05:54:37;10.00;99.90
21950;DHT22;11139;51.284;7.226;2024-03-23T05:57:03;10.00;99.90
21950;DHT22;11139;51.284;7.226;2024-03-23T05:59:29;10.00;99.90
21950;DHT22;11139;51.284;7.226;2024-03-23T06:01:55;10.00;99.90
21950;DHT22;11139;51.284;7.226;2024-03-23T06:04:20;10.00;99.90
21950;DHT22;11139;51.284;7.226;2024-03-23T06:06:48;10.00;99.90
21950;DHT22;11139;51.284;7.226;2024-03-23T06:09:13;10.00;99.90
21950;DHT22;11139;51.284;7.226;2024-03-23T06:11:39;10.00;99.90
21950;DHT22;11139;51.284;7.226;2024-03-23T06:14:05;10.00;99.90
21950;DHT22;11139;51.284;7.226;2024-03-23T06:16:31;10.00;99.90
21950;DHT22;11139;51.284;7.226;2024-03-23T06:18:57;10.00;99.90
21950;DHT22;11139;51.284;7.226;2024-03-23T06:21:23;10.00;99.90
21950;DHT22;11139;51.284;7.226;2024-03-23T06:23:52;10.00;99.90
21950;DHT22;11139;51.284;7.226;2024-03-23T06:26:18;9.90;99.90
21950;DHT22;11139;51.284;7.226;2024-03-23T06:28:44;9.90;99.90
21950;DHT22;11139;51.284;7.226;2024-03-23T06:31:12;9.80;99.90
21950;DHT22;11139;51.284;7.226;2024-03-23T06:33:37;9.80;99.90
21950;DHT22;11139;51.284;7.226;2024-03-23T06:36:04;9.80;99.90
21950;DHT22;11139;51.284;7.226;2024-03-23T06:38:30;9.80;99.90
21950;DHT22;11139;51.284;7.226;2024-03-23T06:40:56;9.80;99.90
21950;DHT22;11139;51.284;7.226;2024-03-23T06:43:21;9.80;99.90
21950;DHT22;11139;51.284;7.226;2024-03-23T06:45:54;9.80;99.90
21950;DHT22;11139;51.284;7.226;2024-03-23T06:48:20;9.80;99.90
21950;DHT22;11139;51.284;7.226;2024-03-23T06:50:46;9.90;99.90
21950;DHT22;11139;51.284;7.226;2024-03-23T06:53:12;9.80;99.90
21950;DHT22;11139;51.284;7.226;2024-03-23T06:55:38;9.80;99.90
21950;DHT22;11139;51.284;7.226;2024-03-23T06:58:04;9.80;99.90
21950;DHT22;11139;51.284;7.226;2024-03-23T07:00:30;9.80;99.90
21950;DHT22;11139;51.284;7.226;2024-03-23T07:02:56;9.80;99.90
21950;DHT22;11139;51.284;7.226;2024-03-23T07:05:21;9.80;99.90
21950;DHT22;11139;51.284;7.226;2024-03-23T07:07:47;9.70;99.90
21950;DHT22;11139;51.284;7.226;2024-03-23T07:10:13;9.70;99.90
21950;DHT22;11139;51.284;7.226;2024-03-23T07:12:38;9.70;99.90
21950;DHT22;11139;51.284;7.226;2024-03-23T07:15:04;9.70;99.90
21950;DHT22;11139;51.284;7.226;2024-03-23T07:17:30;9.70;99.90
21950;DHT22;11139;51.284;7.226;2024-03-23T07:19:58;9.70;99.90
21950;DHT22;11139;51.284;7.226;2024-03-23T07:22:23;9.70;99.90
21950;DHT22;11139;51.284;7.226;2024-03-23T07:24:49;9.70;99.90
21950;DHT22;11139;51.284;7.226;2024-03-23T07:27:15;9.70;99.90
21950;DHT22;11139;51.284;7.226;2024-03-23T07:29:40;9.70;99.90
21950;DHT22;11139;51.284;7.226;2024-03-23T07:32:06;9.70;99.90
21950;DHT22;11139;51.284;7.226;2024-03-23T07:34:32;9.70;99.90
21950;DHT22;11139;51.284;7.226;2024-03-23T07:36:57;9.70;99.90
21950;DHT22;11139;51.284;7.226;2024-03-23T07:39:23;9.70;99.90
21950;DHT22;11139;51.284;7.226;2024-03-23T07:41:48;9.70;99.90
21950;DHT22;11139;51.284;7.226;2024-03-23T07:44:14;9.70;99.90
21950;DHT22;11139;51.284;7.226;2024-03-23T07:46:39;9.60;99.90
21950;DHT22;11139;51.284;7.226;2024-03-23T07:49:05;9.70;99.90
21950;DHT22;11139;51.284;7.226;2024-03-23T07:51:31;9.60;99.90
21950;DHT22;11139;51.284;7.226;2024-03-23T07:53:56;9.60;99.90
21950;DHT22;11139;51.284;7.226;2024-03-23T07:56:22;9.60;99.90
21950;DHT22;11139;51.284;7.226;2024-03-23T07:58:48;9.50;99.90
21950;DHT22;11139;51.284;7.226;2024-03-23T08:01:16;9.50;99.90
21950;DHT22;11139;51.284;7.226;2024-03-23T08:03:44;9.50;99.90
21950;DHT22;11139;51.284;7.226;2024-03-23T08:06:14;9.50;99.90
21950;DHT22;11139;51.284;7.226;2024-03-23T08:08:44;9.50;99.90
21950;DHT22;11139;51.284;7.226;2024-03-23T08:11:11;9.50;99.90
21950;DHT22;11139;51.284;7.226;2024-03-23T08:13:41;9.50;99.90
21950;DHT22;11139;51.284;7.226;2024-03-23T08:16:07;9.50;99.90
21950;DHT22;11139;51.284;7.226;2024-03-23T08:18:34;9.50;99.90
21950;DHT22;11139;51.284;7.226;2024-03-23T08:21:04;9.40;99.90
21950;DHT22;11139;51.284;7.226;2024-03-23T08:23:34;9.40;99.90
21950;DHT22;11139;51.284;7.226;2024-03-23T08:26:12;9.40;99.90
21950;DHT22;11139;51.284;7.226;2024-03-23T08:28:38;9.40;99.90
21950;DHT22;11139;51.284;7.226;2024-03-23T08:31:08;9.40;99.90
21950;DHT22;11139;51.284;7.226;2024-03-23T08:33:34;9.40;99.90
21950;DHT22;11139;51.284;7.226;2024-03-23T08:36:07;9.40;99.90
21950;DHT22;11139;51.284;7.226;2024-03-23T08:38:33;9.40;99.90
21950;DHT22;11139;51.284;7.226;2024-03-23T08:41:03;9.40;99.90
21950;DHT22;11139;51.284;7.226;2024-03-23T08:43:29;9.40;99.90
21950;DHT22;11139;51.284;7.226;2024-03-23T08:46:07;9.40;99.90
21950;DHT22;11139;51.284;7.226;2024-03-23T08:48:38;9.30;99.90
21950;DHT22;11139;51.284;7.226;2024-03-23T08:51:08;9.40;99.90
21950;DHT22;11139;51.284;7.226;2024-03-23T08:53:35;9.40;99.90
21950;DHT22;11139;51.284;7.226;2024-03-23T08:56:01;9.30;99.90
21950;DHT22;11139;51.284;7.226;2024-03-23T08:58:29;9.40;99.90
21950;DHT22;11139;51.284;7.226;2024-03-23T09:00:57;9.30;99.90
21950;DHT22;11139;51.284;7.226;2024-03-23T09:03:28;9.30;99.90
21950;DHT22;11139;51.284;7.226;2024-03-23T09:05:54;9.30;99.90
21950;DHT22;11139;51.284;7.226;2024-03-23T09:08:20;9.40;99.90
21950;DHT22;11139;51.284;7.226;2024-03-23T09:10:47;9.40;99.90
21950;DHT22;11139;51.284;7.226;2024-03-23T09:13:13;9.40;99.90
21950;DHT22;11139;51.284;7.226;2024-03-23T09:15:46;9.30;99.90
21950;DHT22;11139;51.284;7.226;2024-03-23T09:18:12;9.40;99.90
21950;DHT22;11139;51.284;7.226;2024-03-23T09:20:38;9.30;99.90
21950;DHT22;11139;51.284;7.226;2024-03-23T09:23:04;9.30;99.90
21950;DHT22;11139;51.284;7.226;2024-03-23T09:25:29;9.30;99.90
21950;DHT22;11139;51.284;7.226;2024-03-23T09:27:55;9.20;99.90
21950;DHT22;11139;51.284;7.226;2024-03-23T09:30:20;9.20;99.90
21950;DHT22;11139;51.284;7.226;2024-03-23T09:32:46;9.20;99.90
21950;DHT22;11139;51.284;7.226;2024-03-23T09:35:12;9.20;99.90
21950;DHT22;11139;51.284;7.226;2024-03-23T09:37:41;9.20;99.90
21950;DHT22;11139;51.284;7.226;2024-03-23T09:40:15;9.20;99.90
21950;DHT22;11139;51.284;7.226;2024-03-23T09:42:42;9.20;99.90
21950;DHT22;11139;51.284;7.226;2024-03-23T09:45:19;9.20;99.90
21950;DHT22;11139;51.284;7.226;2024-03-23T09:47:46;9.20;99.90
21950;DHT22;11139;51.284;7.226;2024-03-23T09:50:12;9.20;99.90
21950;DHT22;11139;51.284;7.226;2024-03-23T09:52:38;9.10;99.90
21950;DHT22;11139;51.284;7.226;2024-03-23T09:55:04;9.10;99.90
21950;DHT22;11139;51.284;7.226;2024-03-23T09:57:30;9.10;99.90
21950;DHT22;11139;51.284;7.226;2024-03-23T09:59:55;9.10;99.90
21950;DHT22;11139;51.284;7.226;2024-03-23T10:02:24;9.10;99.90
21950;DHT22;11139;51.284;7.226;2024-03-23T10:04:49;9.10;99.90
21950;DHT22;11139;51.284;7.226;2024-03-23T10:07:18;9.10;99.90
21950;DHT22;11139;51.284;7.226;2024-03-23T10:09:45;9.10;99.90
21950;DHT22;11139;51.284;7.226;2024-03-23T10:12:12;9.10;99.90
21950;DHT22;11139;51.284;7.226;2024-03-23T10:14:39;9.10;99.90
21950;DHT22;11139;51.284;7.226;2024-03-23T10:17:34;9.10;99.90
21950;DHT22;11139;51.284;7.226;2024-03-23T10:20:00;9.20;99.90
21950;DHT22;11139;51.284;7.226;2024-03-23T10:22:27;9.00;99.90
21950;DHT22;11139;51.284;7.226;2024-03-23T10:24:52;8.80;99.90
21950;DHT22;11139;51.284;7.226;2024-03-23T10:27:20;8.80;99.90
21950;DHT22;11139;51.284;7.226;2024-03-23T10:29:46;8.80;99.90
21950;DHT22;11139;51.284;7.226;2024-03-23T10:32:13;8.80;99.90
21950;DHT22;11139;51.284;7.226;2024-03-23T10:34:39;8.70;99.90
21950;DHT22;11139;51.284;7.226;2024-03-23T10:37:06;8.70;99.90
21950;DHT22;11139;51.284;7.226;2024-03-23T10:39:37;8.70;99.90
21950;DHT22;11139;51.284;7.226;2024-03-23T10:42:08;8.60;99.90
21950;DHT22;11139;51.284;7.226;2024-03-23T10:44:34;8.70;99.90
21950;DHT22;11139;51.284;7.226;2024-03-23T10:47:04;8.70;99.90
21950;DHT22;11139;51.284;7.226;2024-03-23T10:49:32;8.80;99.90
21950;DHT22;11139;51.284;7.226;2024-03-23T10:52:05;8.90;99.90
21950;DHT22;11139;51.284;7.226;2024-03-23T10:54:31;8.90;99.90
21950;DHT22;11139;51.284;7.226;2024-03-23T10:59:31;9.00;99.90
21950;DHT22;11139;51.284;7.226;2024-03-23T11:01:58;9.00;99.90
21950;DHT22;11139;51.284;7.226;2024-03-23T11:04:35;8.90;99.90
21950;DHT22;11139;51.284;7.226;2024-03-23T11:07:01;8.90;99.90
21950;DHT22;11139;51.284;7.226;2024-03-23T11:09:43;8.90;99.90
21950;DHT22;11139;51.284;7.226;2024-03-23T11:14:54;8.80;99.90
21950;DHT22;11139;51.284;7.226;2024-03-23T11:17:21;8.70;99.90
21950;DHT22;11139;51.284;7.226;2024-03-23T11:20:14;8.70;99.90
21950;DHT22;11139;51.284;7.226;2024-03-23T11:22:45;8.60;99.90
21950;DHT22;11139;51.284;7.226;2024-03-23T11:27:44;8.60;99.90
21950;DHT22;11139;51.284;7.226;2024-03-23T11:32:45;8.60;99.90
21950;DHT22;11139;51.284;7.226;2024-03-23T11:35:24;8.60;99.90
21950;DHT22;11139;51.284;7.226;2024-03-23T11:40:42;8.60;99.90
21950;DHT22;11139;51.284;7.226;2024-03-23T11:43:09;8.60;99.90
21950;DHT22;11139;51.284;7.226;2024-03-23T11:45:44;8.60;99.90
21950;DHT22;11139;51.284;7.226;2024-03-23T11:48:20;8.50;99.90
21950;DHT22;11139;51.284;7.226;2024-03-23T11:50:48;8.50;99.90
21950;DHT22;11139;51.284;7.226;2024-03-23T11:56:00;8.50;99.90
21950;DHT22;11139;51.284;7.226;2024-03-23T11:58:27;8.50;99.90
21950;DHT22;11139;51.284;7.226;2024-03-23T12:01:03;8.50;99.90
21950;DHT22;11139;51.284;7.226;2024-03-23T12:03:30;8.60;99.90
21950;DHT22;11139;51.284;7.226;2024-03-23T12:06:00;8.60;99.90
21950;DHT22;11139;51.284;7.226;2024-03-23T12:08:34;8.70;99.90
21950;DHT22;11139;51.284;7.226;2024-03-23T12:11:07;8.70;99.90
21950;DHT22;11139;51.284;7.226;2024-03-23T12:13:33;8.70;99.90
21950;DHT22;11139;51.284;7.226;2024-03-23T12:18:39;8.70;99.90
21950;DHT22;11139;51.284;7.226;2024-03-23T12:21:05;8.70;99.90
21950;DHT22;11139;51.284;7.226;2024-03-23T12:23:31;8.80;99.90
21950;DHT22;11139;51.284;7.226;2024-03-23T12:25:57;8.80;99.90
21950;DHT22;11139;51.284;7.226;2024-03-23T12:28:23;8.80;99.90
21950;DHT22;11139;51.284;7.226;2024-03-23T12:30:49;8.80;99.90
21950;DHT22;11139;51.284;7.226;2024-03-23T12:33:14;8.70;99.90
21950;DHT22;11139;51.284;7.226;2024-03-23T12:35:40;8.60;99.90
21950;DHT22;11139;51.284;7.226;2024-03-23T12:38:06;8.60;99.90
21950;DHT22;11139;51.284;7.226;2024-03-23T12:40:31;8.60;99.90
21950;DHT22;11139;51.284;7.226;2024-03-23T12:42:57;8.50;99.90
21950;DHT22;11139;51.284;7.226;2024-03-23T12:45:22;8.50;99.90
21950;DHT22;11139;51.284;7.226;2024-03-23T12:47:48;8.50;99.90
21950;DHT22;11139;51.284;7.226;2024-03-23T12:50:14;8.50;99.90
21950;DHT22;11139;51.284;7.226;2024-03-23T12:52:39;8.50;99.90
21950;DHT22;11139;51.284;7.226;2024-03-23T12:55:05;8.40;99.90
21950;DHT22;11139;51.284;7.226;2024-03-23T12:57:32;8.40;99.90
21950;DHT22;11139;51.284;7.226;2024-03-23T12:59:58;8.40;99.90
21950;DHT22;11139;51.284;7.226;2024-03-23T13:02:24;8.40;99.90
21950;DHT22;11139;51.284;7.226;2024-03-23T13:04:50;8.40;99.90
21950;DHT22;11139;51.284;7.226;2024-03-23T13:07:17;8.40;99.90
21950;DHT22;11139;51.284;7.226;2024-03-23T13:09:43;8.40;99.90
21950;DHT22;11139;51.284;7.226;2024-03-23T13:12:09;8.40;99.90
21950;DHT22;11139;51.284;7.226;2024-03-23T13:14:35;8.50;99.90
21950;DHT22;11139;51.284;7.226;2024-03-23T13:17:01;8.50;99.90
21950;DHT22;11139;51.284;7.226;2024-03-23T13:19:28;8.50;99.90
21950;DHT22;11139;51.284;7.226;2024-03-23T13:21:59;8.50;99.90
21950;DHT22;11139;51.284;7.226;2024-03-23T13:24:26;8.60;99.90
21950;DHT22;11139;51.284;7.226;2024-03-23T13:26:53;8.60;99.90
21950;DHT22;11139;51.284;7.226;2024-03-23T13:29:22;8.60;99.90
21950;DHT22;11139;51.284;7.226;2024-03-23T13:31:48;8.50;99.90
21950;DHT22;11139;51.284;7.226;2024-03-23T13:34:15;8.50;99.90
21950;DHT22;11139;51.284;7.226;2024-03-23T13:36:41;8.60;99.90
21950;DHT22;11139;51.284;7.226;2024-03-23T13:39:07;8.50;99.90
21950;DHT22;11139;51.284;7.226;2024-03-23T13:41:40;8.60;99.90
21950;DHT22;11139;51.284;7.226;2024-03-23T13:44:06;8.60;99.90
21950;DHT22;11139;51.284;7.226;2024-03-23T13:46:32;8.60;99.90
21950;DHT22;11139;51.284;7.226;2024-03-23T13:48:58;8.60;99.90
21950;DHT22;11139;51.284;7.226;2024-03-23T13:51:25;8.60;99.90
21950;DHT22;11139;51.284;7.226;2024-03-23T13:53:53;8.60;99.90
21950;DHT22;11139;51.284;7.226;2024-03-23T13:56:19;8.60;99.90
21950;DHT22;11139;51.284;7.226;2024-03-23T13:58:45;8.60;99.90
21950;DHT22;11139;51.284;7.226;2024-03-23T14:01:13;8.50;99.90
21950;DHT22;11139;51.284;7.226;2024-03-23T14:03:39;8.50;99.90
21950;DHT22;11139;51.284;7.226;2024-03-23T14:06:04;8.50;99.90
21950;DHT22;11139;51.284;7.226;2024-03-23T14:08:33;8.50;99.90
21950;DHT22;11139;51.284;7.226;2024-03-23T14:11:01;8.50;99.90
21950;DHT22;11139;51.284;7.226;2024-03-23T14:13:27;8.50;99.90
21950;DHT22;11139;51.284;7.226;2024-03-23T14:15:53;8.50;99.90
21950;DHT22;11139;51.284;7.226;2024-03-23T14:18:19;8.50;99.90
21950;DHT22;11139;51.284;7.226;2024-03-23T14:20:45;8.50;99.90
21950;DHT22;11139;51.284;7.226;2024-03-23T14:23:10;8.50;99.90
21950;DHT22;11139;51.284;7.226;2024-03-23T14:25:36;8.60;99.90
21950;DHT22;11139;51.284;7.226;2024-03-23T14:28:01;8.60;99.90
21950;DHT22;11139;51.284;7.226;2024-03-23T14:30:27;8.60;99.90
21950;DHT22;11139;51.284;7.226;2024-03-23T14:32:52;8.50;99.90
21950;DHT22;11139;51.284;7.226;2024-03-23T14:35:18;8.50;99.90
21950;DHT22;11139;51.284;7.226;2024-03-23T14:37:44;8.50;99.90
21950;DHT22;11139;51.284;7.226;2024-03-23T14:40:11;8.50;99.90
21950;DHT22;11139;51.284;7.226;2024-03-23T14:42:38;8.50;99.90
21950;DHT22;11139;51.284;7.226;2024-03-23T14:45:04;8.50;99.90
21950;DHT22;11139;51.284;7.226;2024-03-23T14:47:30;8.50;99.90
21950;DHT22;11139;51.284;7.226;2024-03-23T14:49:56;8.50;99.90
21950;DHT22;11139;51.284;7.226;2024-03-23T14:52:24;8.50;99.90
21950;DHT22;11139;51.284;7.226;2024-03-23T14:54:50;8.60;99.90
21950;DHT22;11139;51.284;7.226;2024-03-23T14:57:15;8.60;99.90
21950;DHT22;11139;51.284;7.226;2024-03-23T14:59:41;8.60;99.90
21950;DHT22;11139;51.284;7.226;2024-03-23T15:02:07;8.60;99.90
21950;DHT22;11139;51.284;7.226;2024-03-23T15:04:33;8.60;99.90
21950;DHT22;11139;51.284;7.226;2024-03-23T15:06:59;8.60;99.90
21950;DHT22;11139;51.284;7.226;2024-03-23T15:09:25;8.50;99.90
21950;DHT22;11139;51.284;7.226;2024-03-23T15:11:50;8.50;99.90
21950;DHT22;11139;51.284;7.226;2024-03-23T15:14:16;8.50;99.90
21950;DHT22;11139;51.284;7.226;2024-03-23T15:16:42;8.50;99.90
21950;DHT22;11139;51.284;7.226;2024-03-23T15:19:08;8.50;99.90
21950;DHT22;11139;51.284;7.226;2024-03-23T15:21:34;8.50;99.90
21950;DHT22;11139;51.284;7.226;2024-03-23T15:24:00;8.50;99.90
21950;DHT22;11139;51.284;7.226;2024-03-23T15:26:26;8.40;99.90
21950;DHT22;11139;51.284;7.226;2024-03-23T15:28:52;8.50;99.90
21950;DHT22;11139;51.284;7.226;2024-03-23T15:31:24;8.40;99.90
21950;DHT22;11139;51.284;7.226;2024-03-23T15:33:50;8.40;99.90
21950;DHT22;11139;51.284;7.226;2024-03-23T15:36:16;8.40;99.90
21950;DHT22;11139;51.284;7.226;2024-03-23T15:38:43;8.40;99.90
21950;DHT22;11139;51.284;7.226;2024-03-23T15:41:08;8.40;99.90
21950;DHT22;11139;51.284;7.226;2024-03-23T15:43:34;8.40;99.90
21950;DHT22;11139;51.284;7.226;2024-03-23T15:46:02;8.40;99.90
21950;DHT22;11139;51.284;7.226;2024-03-23T15:48:28;8.40;99.90
21950;DHT22;11139;51.284;7.226;2024-03-23T15:50:58;8.40;99.90
21950;DHT22;11139;51.284;7.226;2024-03-23T15:53:25;8.50;99.90
21950;DHT22;11139;51.284;7.226;2024-03-23T15:55:54;8.50;99.90
21950;DHT22;11139;51.284;7.226;2024-03-23T15:58:20;8.40;99.90
21950;DHT22;11139;51.284;7.226;2024-03-23T16:01:15;8.50;99.90
21950;DHT22;11139;51.284;7.226;2024-03-23T16:03:39;8.50;99.90
21950;DHT22;11139;51.284;7.226;2024-03-23T16:06:06;8.50;99.90
21950;DHT22;11139;51.284;7.226;2024-03-23T16:08:35;8.50;99.90
21950;DHT22;11139;51.284;7.226;2024-03-23T16:11:04;8.50;99.90
21950;DHT22;11139;51.284;7.226;2024-03-23T16:13:31;8.50;99.90
21950;DHT22;11139;51.284;7.226;2024-03-23T16:15:58;8.50;99.90
21950;DHT22;11139;51.284;7.226;2024-03-23T16:18:24;8.50;99.90
21950;DHT22;11139;51.284;7.226;2024-03-23T16:20:57;8.50;99.90
21950;DHT22;11139;51.284;7.226;2024-03-23T16:23:23;8.50;99.90
21950;DHT22;11139;51.284;7.226;2024-03-23T16:25:50;8.50;99.90
21950;DHT22;11139;51.284;7.226;2024-03-23T16:28:32;8.50;99.90
21950;DHT22;11139;51.284;7.226;2024-03-23T16:31:02;8.50;99.90
21950;DHT22;11139;51.284;7.226;2024-03-23T16:33:28;8.50;99.90
21950;DHT22;11139;51.284;7.226;2024-03-23T16:36:06;8.40;99.90
21950;DHT22;11139;51.284;7.226;2024-03-23T16:38:36;8.40;99.90
21950;DHT22;11139;51.284;7.226;2024-03-23T16:41:03;8.40;99.90
21950;DHT22;11139;51.284;7.226;2024-03-23T16:43:30;8.40;99.90
21950;DHT22;11139;51.284;7.226;2024-03-23T16:45:57;8.40;99.90
21950;DHT22;11139;51.284;7.226;2024-03-23T16:48:24;8.40;99.90
21950;DHT22;11139;51.284;7.226;2024-03-23T16:50:50;8.40;99.90